Time;durP1;ratioP1;P1;durP2;ratioP2;P2;SDS_P1;SDS_P2;PMS_P1;PMS_P2;Temp;Humidity;BMP_temperature;BMP_pressure;BME280_temperature;BME280_humidity;BME280_pressure;Samples;Min_cycle;Max_cycle;Signal;HPM_P1;HPM_P2
2024/03/05 00:01:35;;;;;;;24.45;15.20;;;;;;;8.33;74.93;93907.38;6252867;22;20007;-70
2024/03/05 00:04:01;;;;;;;21.88;15.02;;;;;;;8.35;74.83;93895.94;6252884;22;21721;-70
2024/03/05 00:06:26;;;;;;;21.02;14.23;;;;;;;8.46;74.01;93893.25;6277708;22;20026;-70
2024/03/05 00:25:13;;;;;;;20.60;14.90;;;;;;;9.01;69.82;93882.28;5149473;27;20389;-69
2024/03/05 00:27:38;;;;;;;21.00;15.18;;;;;;;9.00;69.66;93864.28;5149582;27;20050;-69
2024/03/05 00:30:08;;;;;;;18.77;14.40;;;;;;;8.90;69.90;93862.53;5149694;27;20023;-69
2024/03/05 00:32:35;;;;;;;23.63;14.02;;;;;;;8.74;70.74;93875.25;5149546;27;20023;-69
2024/03/05 00:35:00;;;;;;;24.17;15.48;;;;;;;8.59;70.94;93861.09;5148109;27;20033;-69
2024/03/05 00:37:25;;;;;;;22.80;14.38;;;;;;;8.57;70.72;93857.81;5127557;28;20031;-69
2024/03/05 00:39:51;;;;;;;20.73;14.75;;;;;;;8.51;71.39;93854.00;5106076;28;20443;-69
2024/03/05 00:42:16;;;;;;;22.90;15.02;;;;;;;8.52;71.75;93862.59;5105136;28;20027;-69
2024/03/05 00:44:42;;;;;;;21.88;13.85;;;;;;;8.80;70.78;93858.31;5123389;27;20034;-69
2024/03/05 00:47:07;;;;;;;21.35;14.00;;;;;;;8.62;71.54;93851.28;5147041;27;20023;-71
2024/03/05 00:49:33;;;;;;;18.17;12.60;;;;;;;8.76;70.92;93859.56;5147829;27;20483;-69
2024/03/05 00:51:58;;;;;;;19.58;14.27;;;;;;;8.62;71.43;93859.03;5148052;27;20054;-69
2024/03/05 00:54:24;;;;;;;22.75;15.57;;;;;;;8.44;71.91;93852.91;5149533;27;20035;-69
2024/03/05 00:56:51;;;;;;;20.85;13.82;;;;;;;8.52;71.81;93839.28;5149193;27;20022;-69
2024/03/05 00:59:17;;;;;;;21.42;14.55;;;;;;;8.53;71.58;93831.41;5136959;27;20081;-69
2024/03/05 01:01:43;;;;;;;18.38;12.68;;;;;;;8.49;71.49;93835.22;5127189;28;20515;-70
2024/03/05 01:04:08;;;;;;;19.65;13.98;;;;;;;8.37;72.04;93838.88;5114490;27;20027;-69
2024/03/05 01:06:34;;;;;;;22.05;14.73;;;;;;;8.37;72.24;93839.69;5129841;27;20027;-69
2024/03/05 01:08:59;;;;;;;20.17;14.13;;;;;;;8.59;72.01;93833.44;5130512;27;20446;-69
2024/03/05 01:11:25;;;;;;;24.10;15.27;;;;;;;8.59;71.54;93823.09;5147717;27;20034;-69
2024/03/05 01:13:50;;;;;;;21.02;14.07;;;;;;;8.58;71.79;93826.63;5149036;27;20035;-69
2024/03/05 01:16:15;;;;;;;22.80;14.90;;;;;;;8.49;71.79;93820.50;5127232;27;20424;-69
2024/03/05 01:18:41;;;;;;;25.05;15.48;;;;;;;8.46;71.79;93828.53;5092781;28;20035;-69
2024/03/05 01:21:07;;;;;;;20.60;14.32;;;;;;;8.39;72.21;93821.47;5126938;28;20408;-70
2024/03/05 01:23:33;;;;;;;23.33;15.07;;;;;;;8.27;72.37;93831.09;5134946;27;20474;-69
2024/03/05 01:25:59;;;;;;;22.20;15.05;;;;;;;8.15;72.41;93821.88;5136030;27;20023;-69
2024/03/05 01:28:27;;;;;;;23.98;15.38;;;;;;;8.30;72.10;93820.47;5116506;27;20071;-69
2024/03/05 01:30:53;;;;;;;19.85;14.63;;;;;;;8.34;72.32;93816.69;5116767;27;20030;-69
2024/03/05 01:33:22;;;;;;;22.10;14.68;;;;;;;8.29;72.70;93811.09;5134715;27;20039;-69
2024/03/05 01:35:48;;;;;;;21.83;14.50;;;;;;;8.18;73.04;93808.66;5116849;27;20131;-69
2024/03/05 01:38:14;;;;;;;22.42;13.98;;;;;;;8.49;72.41;93817.91;5116185;27;20107;-69
2024/03/05 01:40:40;;;;;;;22.05;13.73;;;;;;;8.54;71.72;93811.50;5095835;28;20031;-70
2024/03/05 01:43:06;;;;;;;21.63;13.20;;;;;;;8.54;72.27;93809.72;5113993;28;20042;-69
2024/03/05 01:45:33;;;;;;;20.73;14.27;;;;;;;8.41;72.43;93796.25;5122372;27;20030;-70
2024/03/05 01:47:59;;;;;;;20.13;13.50;;;;;;;8.69;71.99;93797.16;5124169;27;20111;-69
2024/03/05 01:50:25;;;;;;;22.63;14.07;;;;;;;8.73;71.08;93796.75;5112572;28;20390;-70
2024/03/05 01:52:50;;;;;;;18.45;12.57;;;;;;;8.75;70.95;93788.84;5112389;28;20024;-69
2024/03/05 01:55:16;;;;;;;17.58;12.75;;;;;;;8.67;71.05;93786.16;5112796;28;20042;-69
2024/03/05 01:57:42;;;;;;;18.13;12.85;;;;;;;8.75;70.63;93788.00;5111784;27;20031;-69
2024/03/05 02:00:09;;;;;;;20.25;13.85;;;;;;;8.66;70.21;93774.13;5115894;27;20031;-69
2024/03/05 02:02:35;;;;;;;21.15;13.55;;;;;;;8.59;70.81;93786.03;5099051;27;20027;-69
2024/03/05 02:05:01;;;;;;;21.02;13.80;;;;;;;8.54;70.94;93793.38;5132793;27;20027;-70
2024/03/05 02:07:27;;;;;;;18.95;13.23;;;;;;;8.37;71.00;93792.31;5115900;27;20349;-69
2024/03/05 02:09:54;;;;;;;19.05;12.65;;;;;;;8.48;71.24;93795.56;5114915;27;20484;-69
2024/03/05 02:12:19;;;;;;;21.45;13.38;;;;;;;8.38;70.83;93799.09;5121170;27;20393;-70
2024/03/05 02:14:45;;;;;;;19.60;12.85;;;;;;;8.41;70.43;93796.25;5094630;28;20052;-69
2024/03/05 02:17:11;;;;;;;19.60;12.25;;;;;;;8.49;71.04;93802.38;5095028;28;20024;-69
2024/03/05 02:19:45;;;;;;;19.50;13.30;;;;;;;8.45;70.78;93801.03;5095204;28;20127;-69
2024/03/05 02:22:11;;;;;;;20.27;12.82;;;;;;;8.38;71.45;93796.50;5094594;28;20024;-69
2024/03/05 02:24:37;;;;;;;20.02;13.27;;;;;;;8.37;71.38;93802.66;5111381;28;20048;-69
2024/03/05 02:27:03;;;;;;;23.45;13.23;;;;;;;8.45;71.98;93797.63;5111913;28;20024;-69
2024/03/05 02:29:29;;;;;;;29.17;16.33;;;;;;;8.45;72.29;93788.09;5094976;28;20046;-69
2024/03/05 02:31:54;;;;;;;23.92;14.52;;;;;;;8.37;72.35;93792.31;5087224;27;20035;-69
2024/03/05 02:34:21;;;;;;;22.15;12.93;;;;;;;8.43;72.87;93790.00;5132370;27;20039;-69
2024/03/05 02:36:47;;;;;;;25.77;13.95;;;;;;;8.42;73.00;93797.91;5131186;27;20034;-69
2024/03/05 02:39:12;;;;;;;25.27;15.07;;;;;;;8.22;73.41;93786.75;5114053;27;20039;-69
2024/03/05 02:41:38;;;;;;;22.40;14.45;;;;;;;8.27;73.80;93794.88;5112745;28;20412;-70
2024/03/05 02:44:04;;;;;;;22.55;14.50;;;;;;;8.28;73.62;93792.16;5113096;28;20459;-69
2024/03/05 02:46:29;;;;;;;18.65;12.98;;;;;;;8.46;72.70;93800.06;5093989;28;20050;-69
2024/03/05 02:48:55;;;;;;;22.75;14.18;;;;;;;8.35;73.07;93797.59;5094524;28;20036;-69
2024/03/05 02:51:20;;;;;;;21.45;13.52;;;;;;;8.32;73.13;93805.63;5111120;28;20032;-69
2024/03/05 02:53:46;;;;;;;30.73;17.92;;;;;;;8.29;75.28;93805.91;5094294;28;20042;-69
2024/03/05 02:56:12;;;;;;;23.92;16.80;;;;;;;8.07;76.13;93810.41;5111390;28;20019;-69
2024/03/05 02:58:38;;;;;;;27.65;17.23;;;;;;;7.98;77.31;93811.25;5093679;27;20074;-69
2024/03/05 03:01:07;;;;;;;27.63;16.63;;;;;;;7.90;77.83;93803.34;5130016;27;20131;-69
2024/03/05 03:03:35;;;;;;;28.27;18.48;;;;;;;7.70;78.93;93810.25;5114922;27;20130;-69
2024/03/05 03:06:02;;;;;;;30.52;18.80;;;;;;;7.71;78.73;93803.31;5109517;28;20473;-70
2024/03/05 03:08:28;;;;;;;30.75;19.27;;;;;;;7.76;79.27;93809.72;5102287;27;20031;-69
2024/03/05 03:10:53;;;;;;;29.27;18.42;;;;;;;7.74;79.31;93792.72;5132280;27;20037;-70
2024/03/05 03:13:19;;;;;;;29.50;18.08;;;;;;;7.76;79.34;93808.91;5132804;27;20046;-69
2024/03/05 03:15:44;;;;;;;29.98;18.30;;;;;;;7.81;79.06;93807.56;5125513;27;20039;-69
2024/03/05 03:18:10;;;;;;;26.40;17.52;;;;;;;7.89;79.14;93811.25;5112209;28;20404;-69
2024/03/05 03:20:35;;;;;;;28.02;18.75;;;;;;;7.84;79.17;93802.09;5120368;27;20031;-69
2024/03/05 03:23:01;;;;;;;27.80;18.58;;;;;;;7.91;79.10;93806.72;5129603;27;20488;-69
2024/03/05 03:25:26;;;;;;;28.13;18.27;;;;;;;7.82;78.96;93805.78;5111998;28;20101;-70
2024/03/05 03:27:52;;;;;;;30.17;17.75;;;;;;;7.80;78.97;93792.16;5111947;28;20036;-69
2024/03/05 03:30:17;;;;;;;29.52;18.77;;;;;;;7.81;78.96;93793.81;5108383;27;20440;-69
2024/03/05 03:32:44;;;;;;;27.35;16.85;;;;;;;7.95;78.57;93793.41;5118337;27;20151;-67
2024/03/05 03:35:10;;;;;;;28.02;17.17;;;;;;;7.97;78.53;93794.09;5093510;28;20027;-67
2024/03/05 03:37:36;;;;;;;32.53;17.98;;;;;;;8.00;77.97;93800.78;5124336;27;20106;-67
2024/03/05 03:40:04;;;;;;;26.70;16.17;;;;;;;8.11;77.61;93799.78;5112655;27;20028;-67
2024/03/05 03:42:30;;;;;;;28.60;16.08;;;;;;;8.11;77.46;93795.47;5117415;27;20068;-67
2024/03/05 03:44:56;;;;;;;24.42;14.77;;;;;;;8.25;76.99;93786.47;5130905;27;20023;-67
2024/03/05 03:47:21;;;;;;;27.75;17.25;;;;;;;8.21;77.30;93793.66;5113413;27;20023;-67
2024/03/05 03:49:48;;;;;;;29.83;18.38;;;;;;;8.25;77.13;93789.06;5130842;27;20476;-67
2024/03/05 03:52:16;;;;;;;25.50;16.92;;;;;;;8.32;76.66;93784.94;5132108;27;20019;-67
2024/03/05 03:54:42;;;;;;;26.73;17.80;;;;;;;8.40;75.96;93790.28;5107560;28;20031;-67
2024/03/05 03:57:09;;;;;;;23.33;15.70;;;;;;;8.48;76.15;93782.63;5093493;28;20312;-67
2024/03/05 03:59:37;;;;;;;20.77;13.82;;;;;;;8.55;76.11;93782.06;5111921;28;20476;-67
2024/03/05 04:02:03;;;;;;;21.65;14.75;;;;;;;8.43;75.25;93779.63;5110215;28;20028;-67
2024/03/05 04:04:29;;;;;;;27.80;16.90;;;;;;;8.21;76.09;93785.91;5110411;28;20195;-67
2024/03/05 04:06:55;;;;;;;23.08;16.15;;;;;;;8.30;76.32;93799.78;5111348;28;20524;-67
2024/03/05 04:09:20;;;;;;;27.85;17.92;;;;;;;8.06;77.96;93788.09;5125588;27;20031;-67
2024/03/05 04:11:46;;;;;;;28.70;18.70;;;;;;;7.83;78.06;93760.88;5111397;27;20393;-70
2024/03/05 04:14:11;;;;;;;28.33;18.08;;;;;;;8.06;78.30;93800.22;5113564;28;20027;-67
2024/03/05 04:16:40;;;;;;;30.60;19.58;;;;;;;7.94;78.68;93794.38;5108818;28;20222;-68
2024/03/05 04:19:09;;;;;;;30.52;18.73;;;;;;;7.89;79.15;93796.53;5108440;28;20140;-68
2024/03/05 04:21:42;;;;;;;30.83;18.13;;;;;;;7.92;79.16;93778.16;5117232;27;20381;-67
2024/03/05 04:24:11;;;;;;;31.98;18.88;;;;;;;7.98;79.27;93785.38;5099151;28;20085;-68
2024/03/05 04:26:37;;;;;;;30.95;18.70;;;;;;;8.10;78.67;93795.59;5074203;28;20541;-68
2024/03/05 04:29:05;;;;;;;28.30;17.55;;;;;;;8.03;78.41;93783.19;5118592;28;20035;-68
2024/03/05 04:31:34;;;;;;;28.67;18.00;;;;;;;7.94;79.06;93794.38;5123388;28;20412;-68
2024/03/05 04:34:00;;;;;;;26.52;17.88;;;;;;;7.74;79.16;93784.94;5110686;28;20032;-68
2024/03/05 04:36:26;;;;;;;25.50;16.55;;;;;;;7.82;78.60;93795.44;5127281;28;20056;-68
2024/03/05 04:38:55;;;;;;;28.20;16.88;;;;;;;7.70;78.98;93797.34;5120227;28;20120;-67
2024/03/05 04:41:20;;;;;;;24.55;15.68;;;;;;;7.69;78.92;93800.88;5109867;28;20032;-68
2024/03/05 04:43:46;;;;;;;22.08;15.23;;;;;;;7.75;78.66;93799.53;5118378;28;20089;-68
2024/03/05 04:46:11;;;;;;;23.27;14.65;;;;;;;7.85;78.45;93802.91;5111575;28;20034;-68
2024/03/05 04:48:40;;;;;;;21.15;14.15;;;;;;;7.77;79.07;93795.03;5109899;28;20023;-68
2024/03/05 04:51:08;;;;;;;22.17;14.65;;;;;;;7.79;78.81;93799.09;5122549;28;20042;-68
2024/03/05 04:53:35;;;;;;;24.80;15.95;;;;;;;7.79;78.83;93804.28;5125799;27;20484;-67
2024/03/05 04:56:04;;;;;;;24.83;15.10;;;;;;;7.72;79.41;93797.22;5110607;28;20034;-68
2024/03/05 04:58:29;;;;;;;23.85;16.52;;;;;;;7.74;79.49;93803.84;5081265;28;20493;-67
2024/03/05 05:00:55;;;;;;;26.67;16.45;;;;;;;7.82;79.30;93793.66;5119605;27;20031;-68
2024/03/05 05:03:20;;;;;;;26.73;16.88;;;;;;;8.00;77.54;93799.00;5113006;27;20038;-68
2024/03/05 05:05:46;;;;;;;23.08;15.00;;;;;;;7.82;78.10;93791.06;5117634;27;20077;-67
2024/03/05 05:08:11;;;;;;;23.42;15.30;;;;;;;7.88;78.51;93804.41;5102536;27;20059;-67
2024/03/05 05:10:37;;;;;;;19.00;14.02;;;;;;;7.98;78.78;93798.31;5113327;27;20397;-67
2024/03/05 05:13:03;;;;;;;19.40;13.88;;;;;;;7.96;78.48;93807.16;5125340;27;20105;-67
2024/03/05 05:15:29;;;;;;;19.30;13.90;;;;;;;7.89;78.29;93804.31;5118040;27;20058;-67
2024/03/05 05:17:55;;;;;;;24.15;14.82;;;;;;;7.82;78.41;93796.25;5126006;27;20050;-67
2024/03/05 05:20:21;;;;;;;20.70;13.88;;;;;;;7.93;78.60;93804.84;5116483;27;20024;-68
2024/03/05 05:22:47;;;;;;;23.48;15.10;;;;;;;8.03;77.96;93801.31;5095223;28;20031;-68
2024/03/05 05:25:14;;;;;;;19.20;13.45;;;;;;;8.03;77.71;93808.25;5095559;28;20024;-68
2024/03/05 05:27:40;;;;;;;21.90;13.95;;;;;;;7.99;77.31;93797.34;5106465;28;20465;-67
2024/03/05 05:30:06;;;;;;;24.98;15.02;;;;;;;8.19;76.24;93803.34;5069133;27;20123;-68
2024/03/05 05:32:34;;;;;;;19.85;14.23;;;;;;;8.16;76.31;93807.97;5097722;27;20166;-68
2024/03/05 05:35:00;;;;;;;18.80;12.35;;;;;;;8.19;75.66;93811.13;5089773;28;20031;-68
2024/03/05 05:37:25;;;;;;;21.38;13.93;;;;;;;8.21;75.29;93803.19;5104200;27;20495;-68
2024/03/05 05:39:52;;;;;;;19.63;11.88;;;;;;;8.18;75.02;93813.81;5125211;27;20028;-68
2024/03/05 05:42:17;;;;;;;18.98;12.80;;;;;;;7.96;76.14;93807.97;5109159;27;20047;-70
2024/03/05 05:44:43;;;;;;;21.48;14.65;;;;;;;8.02;75.68;93817.78;5079994;27;20507;-68
2024/03/05 05:47:11;;;;;;;21.40;13.68;;;;;;;8.00;75.32;93814.50;5117826;27;20863;-69
2024/03/05 05:49:36;;;;;;;16.88;12.00;;;;;;;8.16;74.37;93818.31;5118595;27;20031;-68
2024/03/05 05:52:03;;;;;;;16.35;11.95;;;;;;;8.32;74.52;93807.41;5113647;27;20084;-69
2024/03/05 05:54:29;;;;;;;16.27;11.45;;;;;;;8.34;73.61;93810.69;5078585;28;20495;-68
2024/03/05 05:56:55;;;;;;;18.63;12.25;;;;;;;8.33;73.74;93814.22;5113246;27;20032;-69
2024/03/05 05:59:20;;;;;;;17.60;12.30;;;;;;;8.50;72.96;93811.78;5110383;27;20043;-70
2024/03/05 06:01:46;;;;;;;16.92;11.98;;;;;;;8.58;72.46;93805.09;5113382;27;20031;-70
2024/03/05 06:04:11;;;;;;;17.30;11.27;;;;;;;8.49;72.31;93791.22;5097473;28;20023;-69
2024/03/05 06:06:37;;;;;;;17.00;12.45;;;;;;;8.43;72.99;93804.72;5122629;27;20092;-68
2024/03/05 06:09:08;;;;;;;20.60;12.07;;;;;;;8.27;73.34;93802.66;5091476;27;20038;-68
2024/03/05 06:11:33;;;;;;;;;;;;;;;8.44;73.03;93808.91;5118140;27;20023;-68
2024/03/05 06:13:58;;;;;;;17.98;12.60;;;;;;;8.35;72.82;93797.59;5119649;27;20312;-68
2024/03/05 06:16:24;;;;;;;20.67;12.10;;;;;;;8.36;73.87;93788.06;5117667;27;20031;-68
2024/03/05 06:18:49;;;;;;;16.90;12.27;;;;;;;8.74;72.49;93800.16;5119100;27;20039;-68
2024/03/05 06:21:15;;;;;;;24.38;12.60;;;;;;;9.19;71.06;93799.44;5109637;28;20050;-68
2024/03/05 06:23:40;;;;;;;18.77;12.23;;;;;;;9.61;68.17;93804.13;5110972;28;20463;-68
2024/03/05 06:26:07;;;;;;;17.45;11.75;;;;;;;10.18;67.20;93807.31;5110050;28;20024;-68
2024/03/05 06:28:32;;;;;;;19.58;12.65;;;;;;;10.31;66.73;93806.13;5112996;27;20023;-68
2024/03/05 06:30:58;;;;;;;17.25;11.13;;;;;;;9.99;65.92;93821.22;5115686;27;20026;-68
2024/03/05 06:33:23;;;;;;;18.42;11.30;;;;;;;9.62;66.96;93813.56;5110017;28;20039;-68
2024/03/05 06:35:48;;;;;;;20.05;11.20;;;;;;;9.33;68.24;93830.09;5112810;27;20035;-68
2024/03/05 06:38:15;;;;;;;15.80;10.80;;;;;;;9.27;69.04;93822.06;5110617;27;20036;-68
2024/03/05 06:40:40;;;;;;;19.25;11.40;;;;;;;9.38;68.21;93796.75;5116426;27;20523;-69
2024/03/05 06:43:13;;;;;;;19.98;11.75;;;;;;;9.43;68.58;93817.06;5116668;27;20059;-68
2024/03/05 06:45:40;;;;;;;18.05;10.85;;;;;;;9.36;69.19;93818.59;5113096;27;20056;-68
2024/03/05 06:48:12;;;;;;;17.58;11.75;;;;;;;9.33;68.79;93813.69;5093337;28;20048;-68
2024/03/05 06:50:38;;;;;;;15.20;10.50;;;;;;;9.19;69.42;93822.75;5112812;27;20027;-69
2024/03/05 06:58:32;;;;;;;20.02;11.15;;;;;;;9.18;70.16;93827.13;5111982;27;20043;-67
2024/03/05 07:00:58;;;;;;;19.45;13.30;;;;;;;9.26;71.00;93834.19;5129503;27;20027;-68
2024/03/05 07:03:24;;;;;;;27.70;14.35;;;;;;;9.37;70.13;93821.06;5131690;27;20092;-68
2024/03/05 07:05:49;;;;;;;22.38;14.45;;;;;;;9.29;70.95;93835.69;5121046;27;20055;-68
2024/03/05 07:08:15;;;;;;;23.38;12.95;;;;;;;9.13;71.18;93818.16;5110123;28;20058;-67
2024/03/05 07:10:41;;;;;;;19.92;11.52;;;;;;;9.53;69.81;93827.41;5110951;28;20090;-67
2024/03/05 07:13:08;;;;;;;19.90;11.68;;;;;;;9.44;70.67;93831.66;5124791;27;20050;-67
2024/03/05 07:15:37;;;;;;;20.08;12.45;;;;;;;8.95;72.36;93820.69;5110925;27;20024;-66
2024/03/05 07:18:02;;;;;;;17.20;11.73;;;;;;;9.03;71.93;93807.03;5094742;27;20028;-67
2024/03/05 07:20:28;;;;;;;24.20;13.52;;;;;;;9.13;71.88;93833.69;5089011;28;20031;-68
2024/03/05 07:22:54;;;;;;;21.13;14.20;;;;;;;8.87;72.55;93818.78;5090764;28;20039;-67
2024/03/05 07:25:21;;;;;;;22.98;13.93;;;;;;;9.00;72.64;93843.56;5073250;28;20020;-67
2024/03/05 07:27:47;;;;;;;29.88;16.85;;;;;;;9.12;72.58;93848.44;5072462;28;20032;-67
2024/03/05 07:30:15;;;;;;;29.45;15.27;;;;;;;9.23;72.39;93849.22;5073453;28;20028;-68
2024/03/05 07:32:47;;;;;;;22.20;13.88;;;;;;;8.87;71.94;93803.25;5090195;28;20462;-67
2024/03/05 07:35:14;;;;;;;23.92;15.00;;;;;;;9.12;71.20;93795.81;5090242;28;20024;-67
2024/03/05 07:37:45;;;;;;;18.33;10.75;;;;;;;9.25;69.23;93769.53;5073210;28;20419;-67
2024/03/05 07:40:16;;;;;;;14.95;9.93;;;;;;;9.88;69.07;93849.16;5090273;28;20062;-67
2024/03/05 07:42:47;;;;;;;;;;;;;;;9.90;68.77;93853.25;5090605;28;20039;-67
2024/03/05 07:45:16;;;;;;;17.30;9.57;;;;;;;9.46;69.58;93821.16;5091686;28;19908;-67
2024/03/05 07:47:42;;;;;;;17.38;10.38;;;;;;;9.34;69.72;93834.31;5089970;28;20036;-67
2024/03/05 07:50:12;;;;;;;16.80;9.90;;;;;;;9.33;69.49;93837.88;5089952;28;20024;-67
2024/03/05 07:52:37;;;;;;;18.90;9.90;;;;;;;9.38;70.01;93864.16;5089917;28;20430;-67
2024/03/05 07:55:05;;;;;;;18.45;10.25;;;;;;;9.52;69.46;93862.06;5089718;28;20062;-68
2024/03/05 07:57:31;;;;;;;17.80;9.63;;;;;;;9.31;69.45;93820.81;5091070;28;20024;-67
2024/03/05 07:59:57;;;;;;;17.83;10.80;;;;;;;9.50;69.60;93866.56;5073098;28;20024;-67
2024/03/05 08:02:22;;;;;;;13.98;9.77;;;;;;;9.53;70.01;93872.28;5089823;28;20507;-67
2024/03/05 08:04:48;;;;;;;16.95;10.70;;;;;;;9.14;70.73;93840.53;5090939;28;20481;-67
2024/03/05 08:07:13;;;;;;;17.30;10.70;;;;;;;9.32;71.18;93869.91;5089794;28;20054;-67
2024/03/05 08:09:38;;;;;;;15.98;11.32;;;;;;;9.43;71.13;93870.69;5089873;28;20024;-68
2024/03/05 08:12:04;;;;;;;17.50;11.45;;;;;;;9.43;71.24;93861.13;5072882;28;20017;-67
2024/03/05 08:14:32;;;;;;;15.15;10.50;;;;;;;9.58;71.19;93869.25;5091204;28;20398;-67
2024/03/05 08:16:57;;;;;;;19.90;11.68;;;;;;;9.44;71.22;93854.97;5090954;28;20024;-67
2024/03/05 08:19:23;;;;;;;19.10;11.20;;;;;;;9.70;70.83;93862.94;5089838;28;20028;-67
2024/03/05 08:21:49;;;;;;;16.88;10.63;;;;;;;9.49;70.79;93831.22;5090835;28;20119;-67
2024/03/05 08:24:14;;;;;;;17.75;11.05;;;;;;;9.70;70.65;93857.75;5089480;28;20097;-67
2024/03/05 08:26:40;;;;;;;17.15;10.55;;;;;;;9.85;70.21;93858.88;5072665;28;20020;-67
2024/03/05 08:29:05;;;;;;;19.98;10.90;;;;;;;9.47;71.03;93840.91;5089648;28;20482;-67
2024/03/05 08:31:31;;;;;;;16.23;10.68;;;;;;;9.75;70.43;93865.91;5072801;28;20024;-67
2024/03/05 08:33:57;;;;;;;18.75;11.90;;;;;;;9.68;71.37;93859.66;5089563;28;20036;-67
2024/03/05 08:36:25;;;;;;;17.30;9.82;;;;;;;9.71;70.64;93864.53;5076311;28;20043;-67
2024/03/05 08:38:50;;;;;;;16.83;10.02;;;;;;;9.57;69.43;93857.25;5093695;28;20051;-67
2024/03/05 08:41:17;;;;;;;13.68;8.90;;;;;;;9.83;69.17;93868.59;5076756;28;20478;-67
2024/03/05 08:43:43;;;;;;;17.75;9.88;;;;;;;9.99;68.70;93877.50;5093514;28;20485;-68
2024/03/05 08:46:09;;;;;;;14.15;9.20;;;;;;;10.07;69.10;93877.59;5076663;28;20078;-68
2024/03/05 08:48:34;;;;;;;16.17;10.02;;;;;;;9.96;69.85;93873.41;5093262;28;20044;-67
2024/03/05 08:51:00;;;;;;;18.20;10.65;;;;;;;9.77;70.48;93848.41;5093377;28;20028;-67
2024/03/05 08:53:25;;;;;;;16.70;10.00;;;;;;;9.78;70.05;93860.44;5094601;28;20040;-67
2024/03/05 08:55:52;;;;;;;18.73;11.10;;;;;;;9.75;70.51;93845.16;5093249;28;20035;-67
2024/03/05 08:58:18;;;;;;;17.02;10.63;;;;;;;9.90;70.46;93879.19;5093300;28;20024;-67
2024/03/05 09:00:43;;;;;;;19.25;10.65;;;;;;;10.04;70.18;93864.91;5076222;28;20043;-67
2024/03/05 09:03:09;;;;;;;15.90;10.65;;;;;;;10.18;71.00;93872.19;5093109;28;20040;-67
2024/03/05 09:05:35;;;;;;;17.23;10.70;;;;;;;10.37;70.02;93875.66;5076196;28;20388;-67
2024/03/05 09:08:00;;;;;;;18.08;10.65;;;;;;;10.20;70.30;93861.66;5092922;28;20101;-67
2024/03/05 09:10:26;;;;;;;18.95;11.88;;;;;;;10.17;71.46;93870.56;5092964;28;20028;-68
2024/03/05 09:12:51;;;;;;;15.75;9.98;;;;;;;10.69;68.71;93869.91;5092773;28;20032;-67
2024/03/05 09:15:17;;;;;;;14.95;8.48;;;;;;;10.66;65.97;93875.41;5094168;28;20078;-67
2024/03/05 09:17:42;;;;;;;17.88;10.30;;;;;;;10.64;67.30;93861.72;5093979;28;20513;-67
2024/03/05 09:20:15;;;;;;;17.88;11.05;;;;;;;10.37;67.89;93858.28;5094009;28;20039;-68
2024/03/05 09:22:46;;;;;;;17.42;11.52;;;;;;;10.25;68.72;93847.28;5092603;28;20028;-67
2024/03/05 09:25:12;;;;;;;;;;;;;;;10.47;68.74;93879.81;5060710;28;20165;-67
2024/03/05 09:27:37;;;;;;;19.20;11.30;;;;;;;10.48;68.43;93873.63;5092729;28;19912;-67
2024/03/05 09:30:05;;;;;;;17.38;10.77;;;;;;;10.69;67.88;93860.31;5094074;28;20039;-67
2024/03/05 09:32:31;;;;;;;18.27;10.43;;;;;;;10.63;67.23;93870.50;5092602;28;20020;-67
2024/03/05 09:34:56;;;;;;;16.48;10.30;;;;;;;10.69;67.35;93870.69;5093628;28;20089;-67
2024/03/05 09:37:23;;;;;;;19.02;12.00;;;;;;;10.57;67.20;93858.94;5092471;28;20065;-67
2024/03/05 09:39:50;;;;;;;16.52;10.55;;;;;;;10.77;66.16;93843.16;5093561;28;20082;-67
2024/03/05 09:42:16;;;;;;;16.92;10.75;;;;;;;10.83;66.08;93832.97;5092407;28;20035;-67
2024/03/05 09:44:41;;;;;;;15.52;10.13;;;;;;;10.95;66.33;93859.56;5075568;28;20028;-67
2024/03/05 09:47:07;;;;;;;16.45;10.95;;;;;;;10.89;66.25;93835.00;5075266;28;20035;-67
2024/03/05 09:49:32;;;;;;;16.92;10.40;;;;;;;10.91;65.68;93847.81;5070716;28;20524;-67
2024/03/05 09:51:58;;;;;;;17.38;11.10;;;;;;;10.76;66.69;93846.75;5074610;28;20051;-67
2024/03/05 09:54:24;;;;;;;17.85;11.50;;;;;;;10.93;65.27;93845.88;5093696;28;20024;-67
2024/03/05 09:56:50;;;;;;;15.52;10.45;;;;;;;10.97;65.31;93857.59;5092027;28;20039;-67
2024/03/05 09:59:19;;;;;;;17.02;10.50;;;;;;;11.04;65.69;93850.03;5075518;28;20063;-67
2024/03/05 10:01:47;;;;;;;14.85;9.75;;;;;;;11.03;64.71;93831.00;5093209;28;20030;-67
2024/03/05 10:04:15;;;;;;;18.20;10.25;;;;;;;11.24;64.63;93830.63;5092013;28;20048;-67
2024/03/05 10:06:43;;;;;;;15.32;9.68;;;;;;;11.45;63.98;93851.06;5108562;28;20413;-67
2024/03/05 10:09:10;;;;;;;14.40;9.20;;;;;;;11.43;62.46;93853.00;5093416;28;20024;-67
2024/03/05 10:11:36;;;;;;;19.05;10.32;;;;;;;11.12;63.17;93798.91;5091801;28;20413;-67
2024/03/05 10:14:10;;;;;;;16.85;9.73;;;;;;;11.63;62.86;93869.16;5093157;28;20043;-67
2024/03/05 10:16:39;;;;;;;15.73;9.55;;;;;;;11.20;61.85;93772.13;5075785;28;20114;-67
2024/03/05 10:19:40;;;;;;;14.23;8.40;;;;;;;11.60;60.99;93864.28;5093212;28;20497;-67
2024/03/05 10:22:11;;;;;;;15.65;9.18;;;;;;;11.46;60.88;93863.06;5091552;28;20040;-67
2024/03/05 10:24:36;;;;;;;;;;;;;;;11.38;60.82;93865.63;5093222;28;20044;-67
2024/03/05 10:27:02;;;;;;;14.25;9.13;;;;;;;11.15;62.01;93850.56;5092787;28;20446;-67
2024/03/05 10:29:34;;;;;;;14.48;9.27;;;;;;;11.12;60.33;93840.47;5074663;28;20071;-67
2024/03/05 10:32:04;;;;;;;16.67;9.25;;;;;;;10.91;60.72;93840.81;5091566;28;20032;-67
2024/03/05 10:34:29;;;;;;;12.70;8.77;;;;;;;11.10;60.67;93857.19;5091434;28;20101;-67
2024/03/05 10:36:54;;;;;;;16.70;9.73;;;;;;;11.09;61.50;93858.97;5091373;28;20043;-67
2024/03/05 10:39:22;;;;;;;16.58;8.98;;;;;;;10.93;59.80;93838.09;5091209;28;20035;-67
2024/03/05 10:41:48;;;;;;;14.05;9.05;;;;;;;11.14;59.55;93858.50;5091103;28;20028;-67
2024/03/05 10:44:13;;;;;;;14.43;9.10;;;;;;;10.95;59.81;93849.97;5074346;28;20063;-67
2024/03/05 10:46:41;;;;;;;14.73;8.25;;;;;;;10.61;59.89;93807.50;5057534;28;20643;-67
2024/03/05 10:49:07;;;;;;;15.20;8.82;;;;;;;11.00;60.02;93859.88;5074414;28;20024;-67
2024/03/05 10:51:39;;;;;;;12.18;9.23;;;;;;;10.88;60.51;93842.91;5090838;28;20070;-67
2024/03/05 10:54:05;;;;;;;14.75;9.32;;;;;;;10.45;60.49;93783.06;5090950;28;20043;-67
2024/03/05 10:56:31;;;;;;;15.80;9.13;;;;;;;10.92;60.77;93852.88;5074071;28;20409;-67
2024/03/05 11:01:50;;;;;;;12.82;8.80;;;;;;;11.00;59.35;93867.69;5082960;28;20051;-67
2024/03/05 11:04:19;;;;;;;13.32;9.52;;;;;;;10.67;59.89;93851.88;5073906;28;20063;-67
2024/03/05 11:06:47;;;;;;;14.68;9.10;;;;;;;10.38;60.51;93807.16;5107702;28;20543;-67
2024/03/05 11:09:21;;;;;;;15.90;9.20;;;;;;;10.74;61.06;93858.09;5107600;28;20035;-67
2024/03/05 11:12:08;;;;;;;13.15;8.45;;;;;;;10.81;60.63;93854.88;5091832;28;20023;-67
2024/03/05 11:14:35;;;;;;;11.50;8.57;;;;;;;10.90;60.71;93864.38;5092157;28;20115;-67
2024/03/05 11:17:09;;;;;;;14.10;9.60;;;;;;;10.96;60.44;93864.56;5090619;28;20032;-67
2024/03/05 11:19:36;;;;;;;12.88;9.20;;;;;;;10.90;60.86;93861.78;5090472;28;20409;-67
2024/03/05 11:22:01;;;;;;;15.57;10.35;;;;;;;10.94;60.69;93861.31;5107473;28;20035;-67
2024/03/05 11:24:27;;;;;;;16.52;9.63;;;;;;;10.98;60.72;93864.44;5073350;28;20052;-67
2024/03/05 11:27:02;;;;;;;13.15;9.50;;;;;;;10.99;61.29;93849.66;5091616;28;20054;-67
2024/03/05 11:29:30;;;;;;;17.58;10.25;;;;;;;11.17;60.91;93853.84;5073727;28;20416;-67
2024/03/05 11:31:58;;;;;;;14.05;9.85;;;;;;;11.15;60.07;93840.16;5091939;28;20043;-67
2024/03/05 11:34:23;;;;;;;15.18;9.30;;;;;;;11.13;60.35;93855.09;5090412;28;20040;-67
2024/03/05 11:37:07;;;;;;;16.20;10.13;;;;;;;11.47;58.60;93862.09;5091383;28;20032;-67
2024/03/05 11:39:35;;;;;;;15.25;10.10;;;;;;;11.04;60.38;93848.22;5056837;28;20035;-67
2024/03/05 11:42:00;;;;;;;14.18;9.90;;;;;;;11.08;60.15;93857.34;5057367;28;20036;-67
2024/03/05 11:44:32;;;;;;;15.60;10.60;;;;;;;11.19;60.07;93859.69;5107216;28;20039;-67
2024/03/05 11:46:57;;;;;;;14.23;9.57;;;;;;;11.15;59.85;93850.56;5091244;28;20494;-67
2024/03/05 11:49:23;;;;;;;16.05;10.65;;;;;;;11.12;61.33;93860.47;5090165;28;20070;-67